sensor_id;sensor_type;location;lat;lon;timestamp;pressure;altitude;pressure_sealevel;temperature;humidity
76404;BME280;65232;48.358;2.122;2024-03-02T00:00:08;99228.47;;;6.43;100.00
76404;BME280;65232;48.358;2.122;2024-03-02T00:00:39;99228.06;;;6.48;100.00
76404;BME280;65232;48.358;2.122;2024-03-02T00:01:05;99221.50;;;6.52;100.00
76404;BME280;65232;48.358;2.122;2024-03-02T00:01:30;99232.41;;;6.49;100.00
76404;BME280;65232;48.358;2.122;2024-03-02T00:01:55;99227.78;;;6.51;100.00
76404;BME280;65232;48.358;2.122;2024-03-02T00:02:21;99222.47;;;6.51;100.00
76404;BME280;65232;48.358;2.122;2024-03-02T00:02:48;99228.19;;;6.56;100.00
76404;BME280;65232;48.358;2.122;2024-03-02T00:03:14;99233.63;;;6.54;100.00
76404;BME280;65232;48.358;2.122;2024-03-02T00:03:41;99225.97;;;6.51;100.00
76404;BME280;65232;48.358;2.122;2024-03-02T00:04:07;99228.47;;;6.43;100.00
76404;BME280;65232;48.358;2.122;2024-03-02T00:04:33;99228.31;;;6.45;100.00
76404;BME280;65232;48.358;2.122;2024-03-02T00:04:59;99224.13;;;6.42;100.00
76404;BME280;65232;48.358;2.122;2024-03-02T00:05:24;99238.97;;;6.35;100.00
76404;BME280;65232;48.358;2.122;2024-03-02T00:05:50;99231.00;;;6.35;100.00
76404;BME280;65232;48.358;2.122;2024-03-02T00:06:20;99229.31;;;6.34;100.00
76404;BME280;65232;48.358;2.122;2024-03-02T00:06:46;99230.84;;;6.36;100.00
76404;BME280;65232;48.358;2.122;2024-03-02T00:07:14;99233.91;;;6.32;100.00
76404;BME280;65232;48.358;2.122;2024-03-02T00:07:43;99235.19;;;6.38;100.00
76404;BME280;65232;48.358;2.122;2024-03-02T00:08:09;99226.78;;;6.42;100.00
76404;BME280;65232;48.358;2.122;2024-03-02T00:08:35;99233.66;;;6.45;100.00
76404;BME280;65232;48.358;2.122;2024-03-02T00:09:00;99224.25;;;6.41;100.00
76404;BME280;65232;48.358;2.122;2024-03-02T00:09:26;99225.84;;;6.53;100.00
76404;BME280;65232;48.358;2.122;2024-03-02T00:09:53;99221.63;;;6.50;100.00
76404;BME280;65232;48.358;2.122;2024-03-02T00:10:24;99222.34;;;6.52;100.00
76404;BME280;65232;48.358;2.122;2024-03-02T00:10:57;99226.81;;;6.52;100.00
76404;BME280;65232;48.358;2.122;2024-03-02T00:11:23;99232.13;;;6.52;100.00
76404;BME280;65232;48.358;2.122;2024-03-02T00:11:49;99232.53;;;6.57;100.00
76404;BME280;65232;48.358;2.122;2024-03-02T00:12:15;99230.84;;;6.56;100.00
76404;BME280;65232;48.358;2.122;2024-03-02T00:12:41;99227.47;;;6.54;100.00
76404;BME280;65232;48.358;2.122;2024-03-02T00:13:08;99230.31;;;6.52;100.00
76404;BME280;65232;48.358;2.122;2024-03-02T00:13:33;99230.56;;;6.49;100.00
76404;BME280;65232;48.358;2.122;2024-03-02T00:14:00;99235.72;;;6.41;100.00
76404;BME280;65232;48.358;2.122;2024-03-02T00:14:25;99231.97;;;6.44;100.00
76404;BME280;65232;48.358;2.122;2024-03-02T00:14:53;99236.84;;;6.38;100.00
76404;BME280;65232;48.358;2.122;2024-03-02T00:16:07;99229.03;;;6.37;100.00
76404;BME280;65232;48.358;2.122;2024-03-02T00:16:33;99232.94;;;6.43;100.00
76404;BME280;65232;48.358;2.122;2024-03-02T00:16:59;99229.56;;;6.41;100.00
76404;BME280;65232;48.358;2.122;2024-03-02T00:17:25;99231.25;;;6.42;100.00
76404;BME280;65232;48.358;2.122;2024-03-02T00:17:53;99233.66;;;6.35;100.00
76404;BME280;65232;48.358;2.122;2024-03-02T00:18:47;99238.13;;;6.34;100.00
76404;BME280;65232;48.358;2.122;2024-03-02T00:19:13;99237.25;;;6.24;100.00
76404;BME280;65232;48.358;2.122;2024-03-02T00:19:38;99236.84;;;6.29;100.00
76404;BME280;65232;48.358;2.122;2024-03-02T00:20:09;99228.63;;;6.22;100.00
76404;BME280;65232;48.358;2.122;2024-03-02T00:20:34;99234.91;;;6.21;100.00
76404;BME280;65232;48.358;2.122;2024-03-02T00:21:00;99237.97;;;6.26;100.00
76404;BME280;65232;48.358;2.122;2024-03-02T00:21:27;99238.38;;;6.41;100.00
76404;BME280;65232;48.358;2.122;2024-03-02T00:21:53;99238.81;;;6.46;100.00
76404;BME280;65232;48.358;2.122;2024-03-02T00:22:19;99235.75;;;6.51;100.00
76404;BME280;65232;48.358;2.122;2024-03-02T00:22:44;99240.38;;;6.49;100.00
76404;BME280;65232;48.358;2.122;2024-03-02T00:23:14;99244.72;;;6.50;100.00
76404;BME280;65232;48.358;2.122;2024-03-02T00:23:40;99244.56;;;6.51;100.00
76404;BME280;65232;48.358;2.122;2024-03-02T00:24:20;99236.03;;;6.57;100.00
76404;BME280;65232;48.358;2.122;2024-03-02T00:24:46;99233.81;;;6.53;100.00
76404;BME280;65232;48.358;2.122;2024-03-02T00:25:11;99239.13;;;6.53;100.00
76404;BME280;65232;48.358;2.122;2024-03-02T00:25:42;99239.94;;;6.53;100.00
76404;BME280;65232;48.358;2.122;2024-03-02T00:26:11;99230.16;;;6.44;100.00
76404;BME280;65232;48.358;2.122;2024-03-02T00:26:37;99238.81;;;6.46;100.00
76404;BME280;65232;48.358;2.122;2024-03-02T00:27:03;99236.72;;;6.40;100.00
76404;BME280;65232;48.358;2.122;2024-03-02T00:27:30;99241.75;;;6.43;100.00
76404;BME280;65232;48.358;2.122;2024-03-02T00:27:55;99238.38;;;6.41;100.00
76404;BME280;65232;48.358;2.122;2024-03-02T00:28:29;99238.97;;;6.45;100.00
76404;BME280;65232;48.358;2.122;2024-03-02T00:28:55;99247.34;;;6.40;100.00
76404;BME280;65232;48.358;2.122;2024-03-02T00:29:22;99248.19;;;6.41;100.00
76404;BME280;65232;48.358;2.122;2024-03-02T00:29:47;99239.50;;;6.38;100.00
76404;BME280;65232;48.358;2.122;2024-03-02T00:30:50;99247.78;;;6.45;100.00
76404;BME280;65232;48.358;2.122;2024-03-02T00:31:20;99246.22;;;6.33;100.00
76404;BME280;65232;48.358;2.122;2024-03-02T00:31:45;99238.41;;;6.31;100.00
76404;BME280;65232;48.358;2.122;2024-03-02T00:32:12;99244.97;;;6.37;100.00
76404;BME280;65232;48.358;2.122;2024-03-02T00:32:39;99242.88;;;6.41;100.00
76404;BME280;65232;48.358;2.122;2024-03-02T00:33:06;99238.97;;;6.35;100.00
76404;BME280;65232;48.358;2.122;2024-03-02T00:33:34;99241.19;;;6.30;100.00
76404;BME280;65232;48.358;2.122;2024-03-02T00:34:02;99241.59;;;6.25;100.00
76404;BME280;65232;48.358;2.122;2024-03-02T00:34:30;99248.31;;;6.29;100.00
76404;BME280;65232;48.358;2.122;2024-03-02T00:34:55;99237.41;;;6.32;100.00
76404;BME280;65232;48.358;2.122;2024-03-02T00:35:23;99234.63;;;6.34;100.00
76404;BME280;65232;48.358;2.122;2024-03-02T00:35:49;99241.19;;;6.30;100.00
76404;BME280;65232;48.358;2.122;2024-03-02T00:36:16;99236.31;;;6.35;100.00
76404;BME280;65232;48.358;2.122;2024-03-02T00:36:47;99239.09;;;6.33;100.00
76404;BME280;65232;48.358;2.122;2024-03-02T00:37:13;99237.69;;;6.29;100.00
76404;BME280;65232;48.358;2.122;2024-03-02T00:37:39;99240.50;;;6.38;100.00
76404;BME280;65232;48.358;2.122;2024-03-02T00:38:05;99237.84;;;6.38;100.00
76404;BME280;65232;48.358;2.122;2024-03-02T00:38:31;99242.28;;;6.27;100.00
76404;BME280;65232;48.358;2.122;2024-03-02T00:38:56;99247.22;;;6.22;100.00
76404;BME280;65232;48.358;2.122;2024-03-02T00:39:22;99237.41;;;6.23;100.00
76404;BME280;65232;48.358;2.122;2024-03-02T00:39:49;99236.00;;;6.28;100.00
76404;BME280;65232;48.358;2.122;2024-03-02T00:40:17;99241.47;;;6.27;100.00
76404;BME280;65232;48.358;2.122;2024-03-02T00:40:44;99244.53;;;6.22;100.00
76404;BME280;65232;48.358;2.122;2024-03-02T00:41:16;99248.72;;;6.25;100.00
76404;BME280;65232;48.358;2.122;2024-03-02T00:41:42;99249.69;;;6.24;100.00
76404;BME280;65232;48.358;2.122;2024-03-02T00:42:08;99250.00;;;6.21;100.00
76404;BME280;65232;48.358;2.122;2024-03-02T00:42:34;99258.66;;;6.32;100.00
76404;BME280;65232;48.358;2.122;2024-03-02T00:42:59;99248.63;;;6.36;100.00
76404;BME280;65232;48.358;2.122;2024-03-02T00:44:15;99235.31;;;6.26;100.00
76404;BME280;65232;48.358;2.122;2024-03-02T00:44:41;99250.53;;;6.24;100.00
76404;BME280;65232;48.358;2.122;2024-03-02T00:45:09;99243.28;;;6.26;100.00
76404;BME280;65232;48.358;2.122;2024-03-02T00:45:34;99246.50;;;6.20;100.00
76404;BME280;65232;48.358;2.122;2024-03-02T00:46:00;99246.78;;;6.36;100.00
76404;BME280;65232;48.358;2.122;2024-03-02T00:46:28;99251.25;;;6.26;100.00
76404;BME280;65232;48.358;2.122;2024-03-02T00:46:58;99249.16;;;6.20;100.00
76404;BME280;65232;48.358;2.122;2024-03-02T00:47:24;99249.03;;;6.22;100.00
76404;BME280;65232;48.358;2.122;2024-03-02T00:47:50;99243.53;;;6.23;100.00
76404;BME280;65232;48.358;2.122;2024-03-02T00:48:16;99244.94;;;6.18;100.00
76404;BME280;65232;48.358;2.122;2024-03-02T00:48:48;99249.41;;;6.08;100.00
76404;BME280;65232;48.358;2.122;2024-03-02T00:49:20;99242.97;;;6.10;100.00
76404;BME280;65232;48.358;2.122;2024-03-02T00:49:46;99241.44;;;6.08;100.00
76404;BME280;65232;48.358;2.122;2024-03-02T00:50:13;99242.56;;;6.05;100.00
76404;BME280;65232;48.358;2.122;2024-03-02T00:50:38;99242.66;;;5.94;100.00
76404;BME280;65232;48.358;2.122;2024-03-02T00:51:04;99243.09;;;6.09;100.00
76404;BME280;65232;48.358;2.122;2024-03-02T00:51:31;99246.06;;;6.15;100.00
76404;BME280;65232;48.358;2.122;2024-03-02T00:51:57;99246.91;;;6.16;100.00
76404;BME280;65232;48.358;2.122;2024-03-02T00:52:24;99244.38;;;6.14;100.00
76404;BME280;65232;48.358;2.122;2024-03-02T00:52:49;99245.47;;;6.02;100.00
76404;BME280;65232;48.358;2.122;2024-03-02T00:53:15;99241.84;;;6.03;100.00
76404;BME280;65232;48.358;2.122;2024-03-02T00:53:42;99244.78;;;6.00;100.00
76404;BME280;65232;48.358;2.122;2024-03-02T00:54:09;99246.84;;;5.96;100.00
76404;BME280;65232;48.358;2.122;2024-03-02T00:54:35;99243.22;;;5.97;100.00
76404;BME280;65232;48.358;2.122;2024-03-02T00:55:00;99244.63;;;6.01;100.00
76404;BME280;65232;48.358;2.122;2024-03-02T00:55:26;99248.78;;;5.94;100.00
76404;BME280;65232;48.358;2.122;2024-03-02T00:55:52;99249.50;;;5.96;100.00
76404;BME280;65232;48.358;2.122;2024-03-02T00:56:17;99246.44;;;5.91;100.00
76404;BME280;65232;48.358;2.122;2024-03-02T00:56:43;99251.31;;;5.96;100.00
76404;BME280;65232;48.358;2.122;2024-03-02T00:57:10;99253.44;;;5.92;100.00
76404;BME280;65232;48.358;2.122;2024-03-02T00:57:37;99243.66;;;6.03;100.00
76404;BME280;65232;48.358;2.122;2024-03-02T00:58:03;99245.88;;;5.97;100.00
76404;BME280;65232;48.358;2.122;2024-03-02T00:58:28;99243.22;;;5.97;100.00
76404;BME280;65232;48.358;2.122;2024-03-02T00:58:54;99256.63;;;5.96;100.00
76404;BME280;65232;48.358;2.122;2024-03-02T00:59:19;99253.97;;;5.96;100.00
76404;BME280;65232;48.358;2.122;2024-03-02T00:59:44;99257.19;;;5.90;100.00
76404;BME280;65232;48.358;2.122;2024-03-02T01:00:12;99247.16;;;5.93;100.00
76404;BME280;65232;48.358;2.122;2024-03-02T01:00:40;99251.22;;;6.07;100.00
76404;BME280;65232;48.358;2.122;2024-03-02T01:01:06;99252.75;;;6.00;100.00
76404;BME280;65232;48.358;2.122;2024-03-02T01:01:32;99259.59;;;6.03;100.00
76404;BME280;65232;48.358;2.122;2024-03-02T01:01:57;99257.06;;;6.01;100.00
76404;BME280;65232;48.358;2.122;2024-03-02T01:02:23;99255.97;;;6.04;100.00
76404;BME280;65232;48.358;2.122;2024-03-02T01:02:48;99262.25;;;5.93;100.00
76404;BME280;65232;48.358;2.122;2024-03-02T01:03:15;99250.78;;;6.02;100.00
76404;BME280;65232;48.358;2.122;2024-03-02T01:03:41;99261.16;;;6.05;100.00
76404;BME280;65232;48.358;2.122;2024-03-02T01:04:06;99257.22;;;6.09;100.00
76404;BME280;65232;48.358;2.122;2024-03-02T01:04:32;99254.16;;;6.04;100.00
76404;BME280;65232;48.358;2.122;2024-03-02T01:04:57;99255.41;;;6.10;100.00
76404;BME280;65232;48.358;2.122;2024-03-02T01:05:22;99263.28;;;6.21;100.00
76404;BME280;65232;48.358;2.122;2024-03-02T01:05:48;99252.66;;;6.21;100.00
76404;BME280;65232;48.358;2.122;2024-03-02T01:06:13;99261.47;;;6.21;100.00
76404;BME280;65232;48.358;2.122;2024-03-02T01:06:39;99254.47;;;6.20;100.00
76404;BME280;65232;48.358;2.122;2024-03-02T01:07:04;99256.16;;;6.21;100.00
76404;BME280;65232;48.358;2.122;2024-03-02T01:07:29;99258.81;;;6.21;100.00
76404;BME280;65232;48.358;2.122;2024-03-02T01:07:55;99257.94;;;6.11;100.00
76404;BME280;65232;48.358;2.122;2024-03-02T01:08:20;99262.41;;;6.11;100.00
76404;BME280;65232;48.358;2.122;2024-03-02T01:08:46;99252.06;;;6.08;100.00
76404;BME280;65232;48.358;2.122;2024-03-02T01:09:15;99257.78;;;6.13;100.00
76404;BME280;65232;48.358;2.122;2024-03-02T01:09:42;99255.84;;;6.15;100.00
76404;BME280;65232;48.358;2.122;2024-03-02T01:10:08;99256.81;;;6.14;100.00
76404;BME280;65232;48.358;2.122;2024-03-02T01:10:35;99256.81;;;6.14;100.00
76404;BME280;65232;48.358;2.122;2024-03-02T01:11:00;99260.47;;;6.22;100.00
76404;BME280;65232;48.358;2.122;2024-03-02T01:11:26;99254.47;;;6.20;100.00
76404;BME280;65232;48.358;2.122;2024-03-02T01:11:51;99259.47;;;6.23;100.00
76404;BME280;65232;48.358;2.122;2024-03-02T01:12:17;99254.34;;;6.22;100.00
76404;BME280;65232;48.358;2.122;2024-03-02T01:12:42;99257.53;;;6.25;100.00
76404;BME280;65232;48.358;2.122;2024-03-02T01:13:08;99253.75;;;6.28;100.00
76404;BME280;65232;48.358;2.122;2024-03-02T01:13:33;99258.22;;;6.18;100.00
76404;BME280;65232;48.358;2.122;2024-03-02T01:13:59;99252.78;;;6.19;100.00
76404;BME280;65232;48.358;2.122;2024-03-02T01:14:24;99247.03;;;6.14;100.00
76404;BME280;65232;48.358;2.122;2024-03-02T01:14:49;99253.91;;;6.17;100.00
76404;BME280;65232;48.358;2.122;2024-03-02T01:15:15;99254.59;;;6.19;100.00
76404;BME280;65232;48.358;2.122;2024-03-02T01:15:40;99246.91;;;6.16;100.00
76404;BME280;65232;48.358;2.122;2024-03-02T01:16:06;99256.25;;;6.10;100.00
76404;BME280;65232;48.358;2.122;2024-03-02T01:16:31;99255.00;;;6.14;100.00
76404;BME280;65232;48.358;2.122;2024-03-02T01:16:57;99259.91;;;6.19;100.00
76404;BME280;65232;48.358;2.122;2024-03-02T01:17:23;99252.34;;;6.24;100.00
76404;BME280;65232;48.358;2.122;2024-03-02T01:17:48;99250.66;;;6.13;100.00
76404;BME280;65232;48.358;2.122;2024-03-02T01:18:14;99250.66;;;6.13;100.00
76404;BME280;65232;48.358;2.122;2024-03-02T01:18:39;99252.06;;;6.17;100.00
76404;BME280;65232;48.358;2.122;2024-03-02T01:19:04;99245.34;;;6.13;100.00
76404;BME280;65232;48.358;2.122;2024-03-02T01:19:30;99256.94;;;6.12;100.00
76404;BME280;65232;48.358;2.122;2024-03-02T01:19:55;99248.59;;;6.17;100.00
76404;BME280;65232;48.358;2.122;2024-03-02T01:20:21;99251.38;;;6.15;100.00
76404;BME280;65232;48.358;2.122;2024-03-02T01:20:47;99243.94;;;6.09;100.00
76404;BME280;65232;48.358;2.122;2024-03-02T01:21:12;99249.69;;;6.05;100.00
76404;BME280;65232;48.358;2.122;2024-03-02T01:21:37;99245.22;;;6.15;100.00
76404;BME280;65232;48.358;2.122;2024-03-02T01:22:03;99251.06;;;6.09;100.00
76404;BME280;65232;48.358;2.122;2024-03-02T01:22:28;99242.13;;;6.10;100.00
76404;BME280;65232;48.358;2.122;2024-03-02T01:22:54;99243.53;;;6.04;100.00
76404;BME280;65232;48.358;2.122;2024-03-02T01:23:21;99240.44;;;6.09;100.00
76404;BME280;65232;48.358;2.122;2024-03-02T01:23:46;99249.25;;;5.99;100.00
76404;BME280;65232;48.358;2.122;2024-03-02T01:24:11;99249.41;;;6.08;100.00
76404;BME280;65232;48.358;2.122;2024-03-02T01:24:38;99245.09;;;6.07;100.00
76404;BME280;65232;48.358;2.122;2024-03-02T01:25:04;99239.03;;;5.95;100.00
76404;BME280;65232;48.358;2.122;2024-03-02T01:25:29;99246.56;;;5.90;100.00
76404;BME280;65232;48.358;2.122;2024-03-02T01:25:55;99230.03;;;5.86;100.00
76404;BME280;65232;48.358;2.122;2024-03-02T01:26:20;99245.47;;;6.02;100.00
76404;BME280;65232;48.358;2.122;2024-03-02T01:26:46;99232.66;;;6.07;100.00
76404;BME280;65232;48.358;2.122;2024-03-02T01:27:11;99239.91;;;6.05;100.00
76404;BME280;65232;48.358;2.122;2024-03-02T01:27:37;99236.22;;;5.96;100.00
76404;BME280;65232;48.358;2.122;2024-03-02T01:28:03;99234.03;;;6.11;100.00
76404;BME280;65232;48.358;2.122;2024-03-02T01:28:28;99226.63;;;6.24;100.00
76404;BME280;65232;48.358;2.122;2024-03-02T01:28:54;99227.78;;;6.22;100.00
76404;BME280;65232;48.358;2.122;2024-03-02T01:29:19;99235.72;;;6.12;100.00
76404;BME280;65232;48.358;2.122;2024-03-02T01:29:44;99235.31;;;6.07;100.00
76404;BME280;65232;48.358;2.122;2024-03-02T01:30:10;99230.25;;;6.04;100.00
76404;BME280;65232;48.358;2.122;2024-03-02T01:30:36;99233.06;;;6.12;100.00
76404;BME280;65232;48.358;2.122;2024-03-02T01:31:01;99230.00;;;6.07;100.00
76404;BME280;65232;48.358;2.122;2024-03-02T01:31:27;99228.72;;;6.11;100.00
76404;BME280;65232;48.358;2.122;2024-03-02T01:31:52;99230.13;;;6.15;100.00
76404;BME280;65232;48.358;2.122;2024-03-02T01:32:18;99230.69;;;6.19;100.00
76404;BME280;65232;48.358;2.122;2024-03-02T01:32:44;99224.81;;;6.15;100.00
76404;BME280;65232;48.358;2.122;2024-03-02T01:33:09;99227.59;;;6.14;100.00
76404;BME280;65232;48.358;2.122;2024-03-02T01:33:35;99224.53;;;6.18;100.00
76404;BME280;65232;48.358;2.122;2024-03-02T01:34:00;99230.25;;;6.14;100.00
76404;BME280;65232;48.358;2.122;2024-03-02T01:34:25;99234.03;;;6.11;100.00
76404;BME280;65232;48.358;2.122;2024-03-02T01:34:51;99238.34;;;6.12;100.00
76404;BME280;65232;48.358;2.122;2024-03-02T01:35:16;99235.72;;;6.12;100.00
76404;BME280;65232;48.358;2.122;2024-03-02T01:35:41;99236.28;;;6.16;100.00
76404;BME280;65232;48.358;2.122;2024-03-02T01:36:07;99233.47;;;6.08;100.00
76404;BME280;65232;48.358;2.122;2024-03-02T01:36:33;99234.47;;;6.07;100.00
76404;BME280;65232;48.358;2.122;2024-03-02T01:36:59;99241.97;;;6.01;100.00
76404;BME280;65232;48.358;2.122;2024-03-02T01:37:24;99229.69;;;6.10;100.00
76404;BME280;65232;48.358;2.122;2024-03-02T01:37:50;99229.81;;;6.09;100.00
76404;BME280;65232;48.358;2.122;2024-03-02T01:38:15;99228.84;;;6.00;100.00
76404;BME280;65232;48.358;2.122;2024-03-02T01:38:40;99229.94;;;5.97;100.00
76404;BME280;65232;48.358;2.122;2024-03-02T01:39:06;99233.44;;;5.98;100.00
76404;BME280;65232;48.358;2.122;2024-03-02T01:39:34;99227.44;;;5.96;100.00
76404;BME280;65232;48.358;2.122;2024-03-02T01:39:59;99232.34;;;6.00;100.00
76404;BME280;65232;48.358;2.122;2024-03-02T01:40:25;99228.00;;;5.90;100.00
76404;BME280;65232;48.358;2.122;2024-03-02T01:40:53;99225.69;;;5.85;100.00
76404;BME280;65232;48.358;2.122;2024-03-02T01:41:20;99233.09;;;5.82;100.00
76404;BME280;65232;48.358;2.122;2024-03-02T01:41:45;99234.91;;;5.81;100.00
76404;BME280;65232;48.358;2.122;2024-03-02T01:42:11;99226.53;;;5.86;100.00
76404;BME280;65232;48.358;2.122;2024-03-02T01:42:37;99225.84;;;5.84;100.00
76404;BME280;65232;48.358;2.122;2024-03-02T01:43:04;99227.66;;;5.83;100.00
76404;BME280;65232;48.358;2.122;2024-03-02T01:43:29;99225.47;;;5.88;100.00
76404;BME280;65232;48.358;2.122;2024-03-02T01:43:55;99216.75;;;5.86;100.00
76404;BME280;65232;48.358;2.122;2024-03-02T01:44:20;99219.69;;;5.83;100.00
76404;BME280;65232;48.358;2.122;2024-03-02T01:44:45;99224.63;;;5.97;100.00
76404;BME280;65232;48.358;2.122;2024-03-02T01:45:11;99221.16;;;5.97;100.00
76404;BME280;65232;48.358;2.122;2024-03-02T01:45:36;99226.72;;;5.94;100.00
76404;BME280;65232;48.358;2.122;2024-03-02T01:46:02;99209.28;;;5.91;100.00
76404;BME280;65232;48.358;2.122;2024-03-02T01:46:28;99213.41;;;5.84;100.00
76404;BME280;65232;48.358;2.122;2024-03-02T01:46:54;99212.97;;;5.79;100.00
76404;BME280;65232;48.358;2.122;2024-03-02T01:47:19;99212.97;;;5.79;100.00
76404;BME280;65232;48.358;2.122;2024-03-02T01:47:44;99210.75;;;5.75;100.00
76404;BME280;65232;48.358;2.122;2024-03-02T01:48:10;99209.06;;;5.74;100.00
76404;BME280;65232;48.358;2.122;2024-03-02T01:48:35;99215.63;;;5.79;100.00
76404;BME280;65232;48.358;2.122;2024-03-02T01:49:00;99209.91;;;5.84;100.00
76404;BME280;65232;48.358;2.122;2024-03-02T01:49:26;99213.97;;;5.78;100.00
76404;BME280;65232;48.358;2.122;2024-03-02T01:49:51;99207.81;;;5.78;100.00
76404;BME280;65232;48.358;2.122;2024-03-02T01:50:25;99210.97;;;5.92;100.00
76404;BME280;65232;48.358;2.122;2024-03-02T01:50:50;99212.16;;;5.79;100.00
76404;BME280;65232;48.358;2.122;2024-03-02T01:51:16;99209.50;;;5.79;100.00
76404;BME280;65232;48.358;2.122;2024-03-02T01:51:42;99215.78;;;5.78;100.00
76404;BME280;65232;48.358;2.122;2024-03-02T01:52:07;99212.31;;;5.87;100.00
76404;BME280;65232;48.358;2.122;2024-03-02T01:52:32;99212.19;;;5.88;100.00
76404;BME280;65232;48.358;2.122;2024-03-02T01:52:58;99216.53;;;5.89;100.00
76404;BME280;65232;48.358;2.122;2024-03-02T01:53:24;99208.94;;;5.85;100.00
76404;BME280;65232;48.358;2.122;2024-03-02T01:53:50;99203.50;;;5.86;100.00
76404;BME280;65232;48.358;2.122;2024-03-02T01:54:15;99206.28;;;5.85;100.00
76404;BME280;65232;48.358;2.122;2024-03-02T01:54:40;99206.75;;;5.90;100.00
76404;BME280;65232;48.358;2.122;2024-03-02T01:55:06;99211.94;;;5.91;100.00
76404;BME280;65232;48.358;2.122;2024-03-02T01:55:32;99211.59;;;5.85;100.00
76404;BME280;65232;48.358;2.122;2024-03-02T01:55:59;99208.44;;;5.91;100.00
76404;BME280;65232;48.358;2.122;2024-03-02T01:56:26;99209.66;;;5.87;100.00
76404;BME280;65232;48.358;2.122;2024-03-02T01:56:52;99207.81;;;5.78;100.00
76404;BME280;65232;48.358;2.122;2024-03-02T01:57:17;99204.19;;;5.79;100.00
76404;BME280;65232;48.358;2.122;2024-03-02T01:57:43;99208.78;;;5.77;100.00
76404;BME280;65232;48.358;2.122;2024-03-02T01:58:10;99206.00;;;5.88;100.00
76404;BME280;65232;48.358;2.122;2024-03-02T01:58:35;99203.66;;;5.94;100.00
76404;BME280;65232;48.358;2.122;2024-03-02T01:59:01;99199.88;;;5.87;100.00
76404;BME280;65232;48.358;2.122;2024-03-02T01:59:27;99197.63;;;5.83;100.00
76404;BME280;65232;48.358;2.122;2024-03-02T01:59:52;99201.81;;;5.76;100.00
76404;BME280;65232;48.358;2.122;2024-03-02T02:00:19;99199.56;;;5.81;100.00
76404;BME280;65232;48.358;2.122;2024-03-02T02:00:45;99208.34;;;5.81;100.00
76404;BME280;65232;48.358;2.122;2024-03-02T02:01:10;99201.38;;;5.80;100.00
76404;BME280;65232;48.358;2.122;2024-03-02T02:01:36;99197.03;;;5.79;100.00
76404;BME280;65232;48.358;2.122;2024-03-02T02:02:01;99199.63;;;5.90;100.00
76404;BME280;65232;48.358;2.122;2024-03-02T02:02:26;99200.97;;;5.85;100.00
76404;BME280;65232;48.358;2.122;2024-03-02T02:02:53;99201.09;;;5.83;100.00
76404;BME280;65232;48.358;2.122;2024-03-02T02:03:18;99198.72;;;5.80;100.00
76404;BME280;65232;48.358;2.122;2024-03-02T02:03:44;99199.53;;;5.71;100.00
76404;BME280;65232;48.358;2.122;2024-03-02T02:04:09;99201.66;;;5.77;100.00
76404;BME280;65232;48.358;2.122;2024-03-02T02:04:35;99200.53;;;5.70;100.00
76404;BME280;65232;48.358;2.122;2024-03-02T02:05:00;99190.63;;;5.72;100.00
76404;BME280;65232;48.358;2.122;2024-03-02T02:05:25;99197.16;;;5.68;100.00
76404;BME280;65232;48.358;2.122;2024-03-02T02:05:51;99200.91;;;5.65;100.00
76404;BME280;65232;48.358;2.122;2024-03-02T02:06:16;99195.91;;;5.72;100.00
76404;BME280;65232;48.358;2.122;2024-03-02T02:06:44;99195.66;;;5.75;100.00
76404;BME280;65232;48.358;2.122;2024-03-02T02:07:09;99189.66;;;5.83;100.00
76404;BME280;65232;48.358;2.122;2024-03-02T02:07:35;99196.38;;;5.87;100.00
76404;BME280;65232;48.358;2.122;2024-03-02T02:08:01;99197.50;;;5.94;100.00
76404;BME280;65232;48.358;2.122;2024-03-02T02:08:26;99189.59;;;6.04;100.00
76404;BME280;65232;48.358;2.122;2024-03-02T02:08:52;99187.06;;;6.02;100.00
76404;BME280;65232;48.358;2.122;2024-03-02T02:09:17;99186.91;;;5.94;100.00
76404;BME280;65232;48.358;2.122;2024-03-02T02:09:43;99187.56;;;5.86;100.00
76404;BME280;65232;48.358;2.122;2024-03-02T02:10:10;99191.31;;;5.84;100.00
76404;BME280;65232;48.358;2.122;2024-03-02T02:10:36;99189.25;;;5.78;100.00
76404;BME280;65232;48.358;2.122;2024-03-02T02:11:01;99195.22;;;5.70;100.00
76404;BME280;65232;48.358;2.122;2024-03-02T02:11:27;99189.63;;;5.63;100.00
76404;BME280;65232;48.358;2.122;2024-03-02T02:11:52;99190.84;;;5.59;100.00
76404;BME280;65232;48.358;2.122;2024-03-02T02:12:18;99179.22;;;5.51;100.00
76404;BME280;65232;48.358;2.122;2024-03-02T02:12:44;99186.78;;;5.55;100.00
76404;BME280;65232;48.358;2.122;2024-03-02T02:13:09;99192.81;;;5.67;100.00
76404;BME280;65232;48.358;2.122;2024-03-02T02:13:35;99196.06;;;5.71;100.00
76404;BME280;65232;48.358;2.122;2024-03-02T02:14:00;99195.66;;;5.75;100.00
76404;BME280;65232;48.358;2.122;2024-03-02T02:14:25;99187.50;;;5.67;100.00
76404;BME280;65232;48.358;2.122;2024-03-02T02:14:51;99190.31;;;5.65;100.00
76404;BME280;65232;48.358;2.122;2024-03-02T02:15:48;99187.78;;;5.64;100.00
76404;BME280;65232;48.358;2.122;2024-03-02T02:16:13;99195.91;;;5.72;100.00
76404;BME280;65232;48.358;2.122;2024-03-02T02:16:39;99192.81;;;5.67;100.00
76404;BME280;65232;48.358;2.122;2024-03-02T02:17:04;99191.28;;;5.64;100.00
76404;BME280;65232;48.358;2.122;2024-03-02T02:17:30;99190.59;;;5.62;100.00
76404;BME280;65232;48.358;2.122;2024-03-02T02:17:56;99186.41;;;5.60;100.00
76404;BME280;65232;48.358;2.122;2024-03-02T02:18:22;99187.22;;;5.60;100.00
76404;BME280;65232;48.358;2.122;2024-03-02T02:18:48;99185.13;;;5.64;100.00
76404;BME280;65232;48.358;2.122;2024-03-02T02:19:13;99187.22;;;5.60;100.00
76404;BME280;65232;48.358;2.122;2024-03-02T02:19:40;99186.41;;;5.60;100.00
76404;BME280;65232;48.358;2.122;2024-03-02T02:20:06;99190.88;;;5.69;100.00
76404;BME280;65232;48.358;2.122;2024-03-02T02:20:33;99176.34;;;5.63;100.00
76404;BME280;65232;48.358;2.122;2024-03-02T02:20:58;99184.72;;;5.59;100.00
76404;BME280;65232;48.358;2.122;2024-03-02T02:21:23;99176.88;;;5.57;100.00
76404;BME280;65232;48.358;2.122;2024-03-02T02:21:49;99179.16;;;5.72;100.00